Terminal Aerodrome Forecast
Issued by NWS

Home | Current Version | Previous Version | Text Only | Print | Product List | Glossary On
Versions: 1 2 3 4 5 6 7 8 9 10 11 12 13 14 15 16 17 18 19
000
FTUS43 KLSX 291739
TAFSUS
TAF
KSUS 291739Z 2918/3018 08006KT P6SM SCT025 BKN120
     FM300300 10009KT P6SM VCSH BKN030 OVC050
     FM300900 11010KT 6SM -SHRA VCTS BKN025CB
     FM301500 17011KT 6SM -SHRA BKN025=

USA.gov is the U.S. government's official web portal to all federal, state and local government web resources and services.